Time;durP1;ratioP1;P1;durP2;ratioP2;P2;SDS_P1;SDS_P2;PMS_P1;PMS_P2;Temp;Humidity;BMP_temperature;BMP_pressure;BME280_temperature;BME280_humidity;BME280_pressure;Samples;Min_cycle;Max_cycle;Signal;HPM_P1;HPM_P2
2022/08/25 00:02:07;;;;;;;7.05;5.20;;;;;;;23.32;54.60;100925.50;4997960;28;20046;-79
2022/08/25 00:04:35;;;;;;;6.40;5.20;;;;;;;23.23;55.13;100918.06;4999011;28;20062;-80
2022/08/25 00:07:04;;;;;;;7.07;5.50;;;;;;;23.18;55.11;100926.75;4997275;28;20141;-80
2022/08/25 00:09:34;;;;;;;5.85;5.20;;;;;;;23.08;55.33;100926.56;4997523;28;20058;-78
2022/08/25 00:12:04;;;;;;;9.15;5.35;;;;;;;22.97;55.66;100922.81;4998459;28;20046;-79
2022/08/25 00:14:34;;;;;;;8.80;5.85;;;;;;;22.96;55.73;100920.38;4999986;28;20088;-80
2022/08/25 00:17:04;;;;;;;9.77;5.32;;;;;;;22.94;56.22;100927.81;4999168;28;20153;-77
2022/08/25 00:19:37;;;;;;;10.75;6.10;;;;;;;22.84;57.22;100933.69;4999165;28;20054;-80
2022/08/25 00:22:08;;;;;;;8.38;5.82;;;;;;;22.78;56.23;100919.41;4998374;28;20055;-79
2022/08/25 00:24:35;;;;;;;8.65;5.45;;;;;;;22.78;56.17;100934.59;4997677;28;20054;-80
2022/08/25 00:27:02;;;;;;;6.32;5.32;;;;;;;22.76;56.09;100931.34;5002778;28;20054;-80
2022/08/25 00:29:30;;;;;;;5.78;5.18;;;;;;;22.70;56.64;100925.06;5001897;28;20061;-81
2022/08/25 00:31:58;;;;;;;8.38;5.18;;;;;;;22.72;56.41;100924.81;5004151;28;20153;-80
2022/08/25 00:34:28;;;;;;;11.45;5.57;;;;;;;22.71;56.28;100928.53;5004060;28;20054;-81
2022/08/25 00:36:54;;;;;;;7.10;5.88;;;;;;;22.70;56.67;100933.06;5003398;28;20061;-80
2022/08/25 00:39:23;;;;;;;7.00;5.30;;;;;;;22.66;56.42;100934.59;5003156;28;20077;-82
2022/08/25 00:41:52;;;;;;;8.27;5.50;;;;;;;22.62;56.38;100932.59;5002920;28;20078;-80
2022/08/25 00:44:20;;;;;;;8.63;5.20;;;;;;;22.62;56.78;100937.94;5003335;28;20487;-81
2022/08/25 00:46:50;;;;;;;7.72;5.60;;;;;;;22.58;56.82;100940.22;5002747;28;20082;-82
2022/08/25 00:49:24;;;;;;;7.25;5.50;;;;;;;22.58;57.26;100934.09;5001231;28;20061;-81
2022/08/25 00:51:55;;;;;;;8.32;5.07;;;;;;;22.51;57.09;100934.19;5001541;28;20046;-81
2022/08/25 00:54:29;;;;;;;11.23;5.68;;;;;;;22.52;57.36;100933.94;5001591;28;20129;-81
2022/08/25 00:56:57;;;;;;;9.68;5.55;;;;;;;22.45;57.63;100935.09;5001813;28;20659;-80
2022/08/25 00:59:26;;;;;;;7.18;5.07;;;;;;;22.46;56.98;100939.38;5000342;28;20078;-81
2022/08/25 01:01:54;;;;;;;7.53;5.40;;;;;;;22.41;57.47;100936.56;5001063;28;20051;-80
2022/08/25 01:04:22;;;;;;;8.23;5.40;;;;;;;22.37;58.06;100943.41;5001452;28;20046;-81
2022/08/25 01:06:49;;;;;;;15.07;5.35;;;;;;;22.32;58.39;100935.25;5000776;28;20046;-82
2022/08/25 01:09:18;;;;;;;9.45;6.05;;;;;;;22.26;59.04;100938.81;5001514;28;20474;-80
2022/08/25 01:11:47;;;;;;;8.63;5.18;;;;;;;22.17;59.41;100931.16;5002083;28;20479;-82
2022/08/25 01:14:17;;;;;;;7.53;5.63;;;;;;;22.17;59.16;100933.00;5001639;28;20054;-81
2022/08/25 01:16:44;;;;;;;9.52;5.47;;;;;;;22.15;57.92;100930.56;5001555;28;20092;-81
2022/08/25 01:19:13;;;;;;;11.02;5.85;;;;;;;22.17;58.57;100930.34;5001680;28;20125;-79
2022/08/25 01:21:44;;;;;;;10.13;5.47;;;;;;;22.09;59.79;100939.47;5000679;28;20085;-80
2022/08/25 01:24:15;;;;;;;10.13;5.70;;;;;;;22.05;60.07;100942.78;5002321;28;20093;-80
2022/08/25 01:26:42;;;;;;;8.02;5.53;;;;;;;21.95;60.57;100945.94;5000706;28;20122;-81
2022/08/25 01:29:24;;;;;;;9.48;5.80;;;;;;;21.82;61.21;100946.91;5000863;28;20090;-80
2022/08/25 01:31:56;;;;;;;7.85;5.60;;;;;;;21.66;61.38;100947.53;5000726;28;20050;-82
2022/08/25 01:34:23;;;;;;;;;;;;;;;21.56;61.79;100949.88;5000804;28;20046;-81
2022/08/25 01:36:53;;;;;;;7.38;5.57;;;;;;;21.45;62.17;100943.41;5000044;28;19981;-81
2022/08/25 01:39:20;;;;;;;7.60;5.78;;;;;;;21.42;62.49;100941.19;5001220;28;20499;-80
2022/08/25 01:42:02;;;;;;;7.90;5.65;;;;;;;21.36;62.78;100947.38;5001860;28;20129;-80
2022/08/25 01:44:29;;;;;;;10.98;5.63;;;;;;;21.33;62.80;100947.81;5000814;28;20054;-82
2022/08/25 01:46:56;;;;;;;11.10;5.60;;;;;;;21.34;62.87;100946.78;5000209;28;20046;-80
2022/08/25 01:49:23;;;;;;;7.07;5.53;;;;;;;21.40;61.93;100947.78;5000665;28;20487;-80
2022/08/25 01:51:55;;;;;;;9.75;5.70;;;;;;;21.46;60.78;100928.25;5000494;28;20092;-80
2022/08/25 01:54:22;;;;;;;8.27;5.65;;;;;;;21.56;61.41;100935.75;4999908;28;20085;-80
2022/08/25 01:56:49;;;;;;;8.02;5.90;;;;;;;21.50;61.76;100937.44;4999649;28;20109;-82
2022/08/25 01:59:16;;;;;;;7.97;5.78;;;;;;;21.45;61.79;100945.25;5002483;28;20137;-82
2022/08/25 02:01:43;;;;;;;8.52;5.60;;;;;;;21.45;62.01;100938.09;5004780;28;20046;-78
2022/08/25 02:04:11;;;;;;;8.95;5.50;;;;;;;21.40;62.25;100947.78;5001540;28;20076;-82
2022/08/25 02:06:39;;;;;;;7.50;5.70;;;;;;;21.37;62.58;100953.53;5000761;28;20046;-80
2022/08/25 02:09:10;;;;;;;9.23;6.30;;;;;;;21.31;63.41;100955.22;5000344;28;20050;-80
2022/08/25 02:11:38;;;;;;;12.95;5.85;;;;;;;21.28;63.44;100963.63;5001555;28;20078;-80
2022/08/25 02:14:05;;;;;;;7.00;5.40;;;;;;;21.20;63.56;100962.06;5002134;28;20484;-80
2022/08/25 02:16:34;;;;;;;10.15;5.82;;;;;;;21.17;63.78;100965.16;4999668;28;20054;-81
2022/08/25 02:19:02;;;;;;;8.40;6.07;;;;;;;21.13;63.99;100963.13;4999803;28;20078;-81
2022/08/25 02:21:28;;;;;;;7.65;5.85;;;;;;;21.06;64.36;100967.69;5000403;28;20470;-79
2022/08/25 02:23:56;;;;;;;7.97;6.00;;;;;;;20.98;64.52;100955.47;5001165;28;20080;-81
2022/08/25 02:26:24;;;;;;;11.07;6.35;;;;;;;20.96;64.17;100967.34;5000681;28;20113;-80
2022/08/25 02:28:52;;;;;;;9.32;5.93;;;;;;;20.91;64.79;100967.19;5000580;28;20133;-82
2022/08/25 02:31:21;;;;;;;8.80;6.30;;;;;;;20.80;64.90;100966.84;4999656;28;20105;-81
2022/08/25 02:33:47;;;;;;;8.07;6.22;;;;;;;20.80;64.59;100961.53;5000535;28;20092;-80
2022/08/25 02:36:14;;;;;;;9.40;5.90;;;;;;;20.84;64.67;100960.06;5000993;28;20046;-81
2022/08/25 02:38:43;;;;;;;7.05;5.90;;;;;;;20.86;64.74;100971.31;4999162;28;20078;-81
2022/08/25 02:41:14;;;;;;;9.68;6.00;;;;;;;20.90;64.27;100960.25;5000434;28;20078;-80
2022/08/25 02:43:43;;;;;;;10.25;5.47;;;;;;;20.90;63.02;100957.56;5001297;28;20074;-80
2022/08/25 02:46:13;;;;;;;8.15;5.47;;;;;;;21.00;62.73;100952.59;4998324;28;20581;-81
2022/08/25 02:48:40;;;;;;;9.05;5.68;;;;;;;21.04;61.99;100943.16;4997664;28;20050;-82
2022/08/25 02:51:09;;;;;;;10.57;5.75;;;;;;;21.09;61.56;100940.66;4998229;28;20078;-80
2022/08/25 02:53:39;;;;;;;10.80;5.68;;;;;;;21.06;61.59;100930.44;4998835;28;20082;-80
2022/08/25 02:56:07;;;;;;;9.07;5.70;;;;;;;21.08;61.25;100926.53;4998109;28;20134;-81
2022/08/25 02:58:34;;;;;;;7.50;5.35;;;;;;;21.04;61.42;100919.22;4997436;28;20054;-82
2022/08/25 03:01:02;;;;;;;5.90;5.10;;;;;;;21.03;61.62;100920.25;4997282;28;20082;-81
2022/08/25 03:03:29;;;;;;;6.88;5.45;;;;;;;21.02;61.45;100923.94;4996876;28;20081;-81
2022/08/25 03:05:58;;;;;;;8.70;5.90;;;;;;;21.02;61.78;100921.28;4998034;28;20081;-79
2022/08/25 03:08:27;;;;;;;8.82;5.50;;;;;;;21.05;61.38;100912.84;4998516;28;20054;-79
2022/08/25 03:10:54;;;;;;;6.70;4.97;;;;;;;21.08;61.57;100912.41;4998294;28;20783;-79
2022/08/25 03:13:21;;;;;;;8.75;5.13;;;;;;;21.13;61.08;100907.25;4998963;28;20085;-78
2022/08/25 03:15:48;;;;;;;7.88;5.68;;;;;;;21.12;61.48;100913.63;4997319;28;20133;-82
2022/08/25 03:18:16;;;;;;;8.45;5.50;;;;;;;21.06;61.38;100911.81;4998644;28;20050;-80
2022/08/25 03:20:43;;;;;;;7.95;5.60;;;;;;;21.05;61.61;100923.50;5000759;28;20086;-78
2022/08/25 03:23:10;;;;;;;7.05;5.35;;;;;;;20.99;61.57;100909.22;5002111;28;20116;-78
2022/08/25 03:28:27;;;;;;;8.18;5.60;;;;;;;20.78;62.58;100907.75;5000948;28;20077;-78
2022/08/25 03:30:53;;;;;;;6.97;5.63;;;;;;;20.64;62.94;100906.22;5000013;28;20081;-79
2022/08/25 03:33:25;;;;;;;10.27;6.15;;;;;;;20.51;63.73;100906.31;5000247;28;20161;-78
2022/08/25 03:35:51;;;;;;;9.82;6.15;;;;;;;20.39;64.15;100908.00;4998553;28;20089;-80
2022/08/25 03:38:18;;;;;;;10.70;6.65;;;;;;;20.27;64.66;100899.88;4998419;28;20050;-80
2022/08/25 03:40:45;;;;;;;7.88;6.10;;;;;;;20.16;64.94;100906.69;4999570;28;20470;-80
2022/08/25 03:43:13;;;;;;;10.00;6.50;;;;;;;20.16;65.29;100909.34;5000496;28;20053;-82
2022/08/25 03:45:41;;;;;;;10.80;6.47;;;;;;;20.14;65.26;100916.72;4999079;28;20050;-79
2022/08/25 03:48:07;;;;;;;9.82;6.70;;;;;;;20.14;65.34;100905.25;4999729;28;20108;-81
2022/08/25 03:50:35;;;;;;;8.85;6.03;;;;;;;20.11;65.76;100911.81;4999960;28;20054;-81
2022/08/25 03:53:05;;;;;;;8.40;6.13;;;;;;;20.02;66.22;100902.44;4999580;28;20071;-79
2022/08/25 03:55:31;;;;;;;7.25;5.97;;;;;;;19.99;66.68;100894.91;4997237;28;20053;-79
2022/08/25 03:57:58;;;;;;;8.52;6.57;;;;;;;19.99;66.12;100892.25;4997742;28;20110;-81
2022/08/25 04:00:25;;;;;;;10.00;6.03;;;;;;;19.98;66.21;100885.31;4997914;28;20082;-79
2022/08/25 04:02:52;;;;;;;10.88;6.32;;;;;;;19.95;66.61;100877.75;4997519;28;20046;-80
2022/08/25 04:05:19;;;;;;;12.60;7.03;;;;;;;20.01;66.60;100884.88;4997489;28;20055;-79
2022/08/25 04:07:49;;;;;;;8.40;5.90;;;;;;;19.98;66.93;100872.03;4997765;28;20050;-78
2022/08/25 04:10:16;;;;;;;8.45;6.15;;;;;;;19.91;67.37;100879.22;4998437;28;20108;-79
2022/08/25 04:12:44;;;;;;;7.00;6.25;;;;;;;19.86;67.51;100879.03;4997849;28;20074;-78
2022/08/25 04:15:11;;;;;;;11.57;6.88;;;;;;;19.84;67.87;100879.25;4997273;28;20065;-78
2022/08/25 04:17:41;;;;;;;8.95;6.45;;;;;;;19.80;68.69;100882.53;4996757;28;20050;-80
2022/08/25 04:20:09;;;;;;;8.32;6.25;;;;;;;19.75;68.62;100882.34;5000402;28;20054;-81
2022/08/25 04:22:37;;;;;;;10.13;6.15;;;;;;;19.68;68.93;100884.22;5013042;28;20042;-80
2022/08/25 04:25:07;;;;;;;9.80;6.50;;;;;;;19.73;69.32;100884.41;5014768;28;20054;-84
2022/08/25 04:27:36;;;;;;;11.93;6.70;;;;;;;19.59;69.97;100896.91;5015839;28;20058;-82
2022/08/25 04:30:04;;;;;;;10.48;6.47;;;;;;;19.45;70.02;100901.38;5011076;28;20054;-81
2022/08/25 04:32:31;;;;;;;12.65;7.00;;;;;;;19.41;70.20;100897.50;5004779;28;20046;-80
2022/08/25 04:34:58;;;;;;;12.93;6.85;;;;;;;19.41;69.85;100899.34;5005427;28;20050;-79
2022/08/25 04:37:24;;;;;;;12.35;6.93;;;;;;;19.47;69.91;100899.34;5002750;28;20558;-81
2022/08/25 04:39:55;;;;;;;12.05;6.60;;;;;;;19.43;70.01;100895.47;5001914;28;20061;-80
2022/08/25 04:42:25;;;;;;;13.57;7.18;;;;;;;19.49;70.24;100885.88;5002031;28;20054;-79
2022/08/25 04:44:53;;;;;;;12.85;6.70;;;;;;;19.50;70.02;100888.31;5000528;28;20076;-80
2022/08/25 04:47:20;;;;;;;9.60;6.45;;;;;;;19.48;70.01;100892.19;5000907;28;20077;-79
2022/08/25 04:49:46;;;;;;;10.27;6.20;;;;;;;19.49;70.03;100902.59;4999600;28;20490;-81
2022/08/25 04:52:13;;;;;;;15.52;6.05;;;;;;;19.54;69.68;100894.06;4999932;28;20050;-80
2022/08/25 04:54:40;;;;;;;12.65;6.75;;;;;;;19.65;69.57;100893.41;5000087;28;20540;-81
2022/08/25 04:57:07;;;;;;;12.95;7.03;;;;;;;19.53;69.68;100872.00;4999848;28;20046;-82
2022/08/25 04:59:38;;;;;;;22.15;7.60;;;;;;;19.57;69.56;100866.28;4999487;28;20507;-82
2022/08/25 05:02:13;;;;;;;14.90;6.63;;;;;;;19.70;68.89;100867.06;4999570;28;20422;-79
2022/08/25 05:04:49;;;;;;;12.98;6.57;;;;;;;19.66;68.46;100851.75;4999797;28;20056;-79
2022/08/25 05:07:19;;;;;;;14.27;6.15;;;;;;;19.74;68.82;100860.31;5001807;28;20054;-83
2022/08/25 05:09:46;;;;;;;9.50;6.35;;;;;;;19.76;69.05;100868.88;4999102;28;20054;-80
2022/08/25 05:12:15;;;;;;;11.75;6.25;;;;;;;19.87;69.17;100876.16;5000086;28;20046;-81
2022/08/25 05:14:43;;;;;;;11.38;6.72;;;;;;;19.93;68.86;100877.16;5001869;28;20057;-80
2022/08/25 05:17:10;;;;;;;14.32;6.18;;;;;;;19.85;68.83;100869.41;5008702;23;20054;-78
2022/08/25 05:19:58;;;;;;;17.75;6.25;;;;;;;19.87;68.39;100862.06;4962191;28;20083;-80
2022/08/25 05:22:47;;;;;;;28.02;7.13;;;;;;;19.84;68.80;100854.53;4960545;29;20130;-80
2022/08/25 05:25:17;;;;;;;13.48;6.65;;;;;;;19.93;68.60;100850.59;4967657;29;20051;-79
2022/08/25 05:27:51;;;;;;;16.08;6.40;;;;;;;19.99;68.75;100844.44;4963322;28;20055;-80
2022/08/25 05:30:22;;;;;;;15.10;6.70;;;;;;;20.12;68.30;100878.09;4960721;28;20134;-80
2022/08/25 05:32:52;;;;;;;11.43;6.18;;;;;;;20.23;68.64;100882.75;4978752;28;20055;-79
2022/08/25 05:35:19;;;;;;;12.50;6.72;;;;;;;20.28;68.02;100869.63;4975640;28;20190;-79
2022/08/25 05:37:46;;;;;;;15.25;6.32;;;;;;;20.41;67.67;100869.56;4975807;28;20471;-79
2022/08/25 05:40:17;;;;;;;14.63;6.57;;;;;;;20.43;67.52;100866.69;4977576;28;20121;-78
2022/08/25 05:42:44;;;;;;;12.30;6.25;;;;;;;20.42;68.08;100847.25;4982708;28;20047;-79
2022/08/25 05:45:12;;;;;;;14.27;6.30;;;;;;;20.73;67.61;100867.72;4984823;28;20082;-79
2022/08/25 05:47:40;;;;;;;14.95;6.50;;;;;;;20.81;66.83;100851.44;4982585;28;20201;-80
2022/08/25 05:50:08;;;;;;;22.65;7.18;;;;;;;21.12;65.84;100865.72;4981203;28;20082;-80
2022/08/25 05:52:35;;;;;;;21.90;7.22;;;;;;;21.77;64.24;100858.03;4988369;28;20053;-81
2022/08/25 05:55:02;;;;;;;23.27;7.00;;;;;;;23.08;60.54;100849.16;4985692;28;20055;-80
2022/08/25 05:57:29;;;;;;;15.10;7.05;;;;;;;24.16;58.28;100846.53;4983140;28;20055;-81
2022/08/25 05:59:55;;;;;;;10.82;6.45;;;;;;;25.21;55.81;100834.28;4984023;28;20054;-79
2022/08/25 06:05:08;;;;;;;16.30;7.03;;;;;;;26.24;53.14;100845.13;4976628;28;20193;-77
2022/08/25 06:07:35;;;;;;;18.85;6.85;;;;;;;26.65;52.35;100844.44;4974120;28;20105;-78
2022/08/25 06:10:02;;;;;;;18.20;6.53;;;;;;;27.12;51.54;100850.94;4976435;28;20051;-77
2022/08/25 06:12:31;;;;;;;15.80;6.45;;;;;;;27.60;50.67;100849.84;4974125;28;20514;-78
2022/08/25 06:14:58;;;;;;;23.23;7.10;;;;;;;27.71;49.99;100843.44;4974776;28;20055;-78
2022/08/25 06:17:24;;;;;;;26.25;7.43;;;;;;;28.15;49.84;100843.78;4966514;28;20571;-78
2022/08/25 06:19:53;;;;;;;13.88;6.30;;;;;;;28.08;49.09;100838.66;4962254;28;20083;-78
2022/08/25 06:22:21;;;;;;;11.43;6.28;;;;;;;28.03;49.12;100844.03;4962397;28;20047;-78
2022/08/25 06:24:48;;;;;;;15.25;6.35;;;;;;;27.62;49.72;100848.50;4968813;28;20070;-80
2022/08/25 06:27:15;;;;;;;13.90;5.90;;;;;;;27.62;49.68;100856.56;4966645;28;20536;-78
2022/08/25 06:29:42;;;;;;;11.13;5.80;;;;;;;27.48;50.57;100851.91;4965889;28;20086;-78
2022/08/25 06:32:08;;;;;;;13.88;6.38;;;;;;;28.22;49.32;100849.75;4970666;28;20098;-78
2022/08/25 06:34:37;;;;;;;11.45;5.70;;;;;;;28.88;48.33;100851.59;4966621;28;20074;-77
2022/08/25 06:37:04;;;;;;;11.77;6.05;;;;;;;28.68;48.44;100852.44;4964309;28;20508;-78
2022/08/25 06:39:32;;;;;;;20.65;6.18;;;;;;;28.84;47.20;100861.31;4964515;28;20507;-77
2022/08/25 06:41:59;;;;;;;16.13;5.80;;;;;;;27.77;49.14;100860.38;4967268;28;20173;-77
2022/08/25 06:44:27;;;;;;;22.90;7.38;;;;;;;27.18;50.50;100855.25;4968264;28;20109;-78
2022/08/25 06:46:54;;;;;;;10.43;5.50;;;;;;;27.19;50.29;100852.31;4975842;28;20109;-77
2022/08/25 06:49:21;;;;;;;10.27;5.82;;;;;;;27.64;49.62;100859.00;4968040;28;20059;-78
2022/08/25 06:51:48;;;;;;;8.18;5.97;;;;;;;28.03;49.19;100854.78;4968423;28;20058;-78
2022/08/25 06:54:15;;;;;;;9.52;5.30;;;;;;;28.90;47.43;100861.03;4971676;28;20397;-78
2022/08/25 06:56:43;;;;;;;9.70;5.60;;;;;;;28.79;46.95;100861.31;4970407;28;20484;-78
2022/08/25 06:59:10;;;;;;;10.48;5.45;;;;;;;29.02;46.66;100860.75;4972633;28;20089;-78
2022/08/25 07:01:36;;;;;;;9.25;5.35;;;;;;;28.87;47.05;100861.56;4973273;28;20053;-79
2022/08/25 07:04:05;;;;;;;8.48;5.60;;;;;;;28.57;47.11;100856.19;4975349;28;20092;-79
2022/08/25 07:06:34;;;;;;;10.00;5.38;;;;;;;28.71;46.83;100858.09;4964708;28;20105;-79
2022/08/25 07:09:02;;;;;;;9.95;5.93;;;;;;;28.76;47.01;100856.47;4965957;28;20054;-79
2022/08/25 07:11:33;;;;;;;14.18;5.70;;;;;;;28.87;46.14;100856.19;4967967;28;20119;-78
2022/08/25 07:14:01;;;;;;;8.48;5.80;;;;;;;28.13;47.63;100850.50;4966459;28;20137;-80
2022/08/25 07:16:28;;;;;;;11.25;5.80;;;;;;;27.55;48.11;100850.59;4972497;28;20050;-78
2022/08/25 07:18:56;;;;;;;10.38;5.60;;;;;;;27.76;48.29;100851.50;4964206;28;20079;-79
2022/08/25 07:21:25;;;;;;;10.57;5.53;;;;;;;28.42;47.57;100846.22;4964400;28;20047;-78
2022/08/25 07:23:52;;;;;;;8.63;5.63;;;;;;;28.36;47.22;100845.41;4964664;28;20069;-78
2022/08/25 07:26:20;;;;;;;10.27;5.50;;;;;;;29.01;46.10;100846.47;4963576;28;20435;-77
2022/08/25 07:28:47;;;;;;;10.80;5.72;;;;;;;27.98;47.30;100844.00;4965580;28;20090;-78
2022/08/25 07:31:16;;;;;;;13.73;5.53;;;;;;;28.39;47.20;100849.47;4967419;28;20058;-79
2022/08/25 07:35:14;;;;;;;8.90;5.78;;;;;;;28.22;47.44;100844.34;4964198;28;20071;-79
2022/08/25 07:36:29;;;;;;;9.68;5.47;;;;;;;28.71;46.79;100855.38;4964871;28;20507;-78
2022/08/25 07:38:56;;;;;;;13.13;6.47;;;;;;;29.40;45.18;100835.81;4964012;28;20066;-78
2022/08/25 07:41:23;;;;;;;9.57;5.65;;;;;;;28.55;46.51;100845.69;4964965;28;20526;-78
2022/08/25 07:43:50;;;;;;;9.55;5.65;;;;;;;29.35;46.24;100845.81;4963047;28;20050;-78
2022/08/25 07:46:18;;;;;;;8.43;5.70;;;;;;;28.73;46.03;100853.22;4966222;28;20101;-78
2022/08/25 07:48:45;;;;;;;11.88;5.90;;;;;;;28.87;46.15;100850.00;4975694;28;20062;-79
2022/08/25 07:51:14;;;;;;;11.00;5.68;;;;;;;28.10;47.62;100846.47;4975407;28;20051;-79
2022/08/25 07:53:41;;;;;;;14.35;5.72;;;;;;;29.50;45.50;100851.19;4974727;28;20566;-78
2022/08/25 07:56:10;;;;;;;10.90;5.38;;;;;;;29.21;46.09;100850.19;4976157;28;20047;-80
2022/08/25 07:58:37;;;;;;;11.50;5.88;;;;;;;29.93;45.49;100838.81;4977232;28;20109;-78
2022/08/25 08:01:04;;;;;;;10.00;5.50;;;;;;;30.04;44.23;100843.09;4974119;28;20069;-79
2022/08/25 08:03:33;;;;;;;8.75;5.75;;;;;;;29.09;46.28;100847.78;4969996;28;20047;-78
2022/08/25 08:06:00;;;;;;;9.43;5.95;;;;;;;28.81;46.93;100851.88;4968765;28;20043;-78
2022/08/25 08:08:27;;;;;;;10.48;5.40;;;;;;;29.32;46.49;100847.16;4973414;28;20082;-78
2022/08/25 08:10:54;;;;;;;9.73;5.50;;;;;;;28.67;47.02;100837.34;4966271;28;20050;-79
2022/08/25 08:13:22;;;;;;;10.38;5.63;;;;;;;29.14;45.95;100847.78;4974217;28;20097;-79
2022/08/25 08:15:49;;;;;;;8.85;5.85;;;;;;;29.34;45.99;100830.72;4974166;28;20046;-79
2022/08/25 08:18:16;;;;;;;9.10;5.63;;;;;;;29.75;45.35;100834.06;4974373;28;20082;-80
2022/08/25 08:20:46;;;;;;;13.20;5.60;;;;;;;30.20;44.88;100818.69;4978156;28;20558;-80
2022/08/25 08:23:13;;;;;;;12.95;5.97;;;;;;;31.13;43.39;100821.06;4974947;28;20074;-80
2022/08/25 08:25:39;;;;;;;9.85;5.72;;;;;;;29.43;45.73;100812.94;4979522;28;20093;-79
2022/08/25 08:28:06;;;;;;;12.63;6.05;;;;;;;29.70;45.52;100826.00;4979603;28;20050;-79
2022/08/25 08:30:35;;;;;;;7.93;5.55;;;;;;;30.01;45.29;100824.75;4980036;28;20097;-79
2022/08/25 08:33:03;;;;;;;10.13;6.57;;;;;;;29.88;45.40;100819.94;4980054;28;20126;-79
2022/08/25 08:35:29;;;;;;;9.20;5.70;;;;;;;29.76;45.78;100824.91;4975290;28;20148;-80
2022/08/25 08:37:57;;;;;;;12.75;5.93;;;;;;;30.19;45.54;100822.47;4980343;28;20062;-79
2022/08/25 08:40:24;;;;;;;8.68;5.63;;;;;;;31.04;44.42;100817.34;4983086;28;20055;-80
2022/08/25 08:43:01;;;;;;;8.25;5.70;;;;;;;30.02;45.47;100812.06;4980815;28;20047;-79
2022/08/25 08:45:35;;;;;;;8.60;6.10;;;;;;;29.61;45.89;100809.59;4981375;28;20070;-80
2022/08/25 08:48:26;;;;;;;10.07;6.22;;;;;;;29.39;47.20;100809.94;4985595;28;20078;-80
2022/08/25 08:51:39;;;;;;;15.85;6.13;;;;;;;29.42;46.68;100813.19;4986082;28;20058;-80
2022/08/25 08:54:19;;;;;;;8.80;5.90;;;;;;;30.25;45.72;100795.13;4988551;28;20058;-80
2022/08/25 08:56:50;;;;;;;11.27;5.65;;;;;;;30.79;44.82;100796.00;4999650;28;20110;-80
2022/08/25 08:59:21;;;;;;;9.45;6.10;;;;;;;30.34;45.01;100812.34;4985256;28;20074;-79
2022/08/25 09:01:56;;;;;;;16.10;6.35;;;;;;;30.73;44.90;100799.84;4985564;28;20115;-80
2022/08/25 09:04:30;;;;;;;16.40;6.05;;;;;;;30.76;44.72;100793.88;4981224;28;20057;-78
2022/08/25 09:06:59;;;;;;;10.88;5.47;;;;;;;30.46;44.99;100792.25;4978758;28;20078;-78
2022/08/25 09:09:32;;;;;;;8.68;6.10;;;;;;;29.85;46.45;100785.44;4977589;28;20463;-77
2022/08/25 09:12:11;;;;;;;11.95;6.43;;;;;;;30.36;45.47;100790.47;4975452;28;20515;-77
2022/08/25 09:14:49;;;;;;;11.38;6.15;;;;;;;29.93;46.07;100775.94;4974792;28;20125;-78
2022/08/25 09:17:29;;;;;;;9.15;5.65;;;;;;;29.63;47.51;100771.56;4977019;28;20153;-76
2022/08/25 09:20:11;;;;;;;9.50;5.57;;;;;;;30.03;46.50;100774.00;4975058;28;20086;-75
2022/08/25 09:22:55;;;;;;;10.73;5.25;;;;;;;30.15;45.91;100768.25;4975344;28;20427;-76
2022/08/25 09:25:29;;;;;;;8.20;5.50;;;;;;;30.36;46.16;100774.25;4975294;28;20562;-76
2022/08/25 09:28:08;;;;;;;9.93;5.25;;;;;;;31.03;44.71;100772.50;4977089;28;20058;-78
2022/08/25 09:30:45;;;;;;;9.30;5.75;;;;;;;30.54;45.84;100770.84;4976172;28;20408;-77
2022/08/25 09:33:17;;;;;;;9.45;5.78;;;;;;;30.31;45.99;100766.22;4977425;28;20376;-78
2022/08/25 09:35:44;;;;;;;7.15;5.65;;;;;;;30.23;46.16;100772.25;4975532;28;20105;-77
2022/08/25 09:38:13;;;;;;;11.30;5.63;;;;;;;30.09;46.66;100760.47;4976061;28;20061;-78
2022/08/25 09:40:46;;;;;;;13.73;6.68;;;;;;;30.50;45.78;100761.72;4977821;28;20445;-78
2022/08/25 09:43:23;;;;;;;12.55;5.95;;;;;;;30.60;45.42;100769.75;4978099;28;20070;-79
2022/08/25 09:45:59;;;;;;;10.88;5.50;;;;;;;30.88;45.83;100767.28;4976979;28;20086;-78
2022/08/25 09:48:28;;;;;;;9.25;5.57;;;;;;;29.76;47.03;100753.97;4973249;28;20085;-79
2022/08/25 09:51:02;;;;;;;7.07;5.38;;;;;;;30.48;46.56;100741.50;4978206;28;20065;-78
2022/08/25 09:53:29;;;;;;;7.22;5.60;;;;;;;31.47;44.92;100760.59;4972189;28;20400;-78
2022/08/25 09:56:03;;;;;;;8.00;5.45;;;;;;;31.25;44.37;100748.44;4975530;28;20063;-79
2022/08/25 09:58:31;;;;;;;9.85;5.95;;;;;;;31.34;44.81;100752.13;4974384;28;20580;-80
2022/08/25 10:01:14;;;;;;;7.13;5.07;;;;;;;30.96;45.17;100750.44;4975516;28;20042;-77
2022/08/25 10:03:58;;;;;;;11.95;5.65;;;;;;;30.12;46.57;100763.44;4972926;28;20137;-78
2022/08/25 10:06:29;;;;;;;8.75;5.60;;;;;;;30.72;45.72;100757.75;4965346;28;20098;-79
2022/08/25 10:08:59;;;;;;;7.75;5.25;;;;;;;30.80;45.29;100752.50;4970002;28;20467;-78
2022/08/25 10:11:36;;;;;;;6.50;5.20;;;;;;;30.49;45.64;100745.78;4974851;28;20105;-79
2022/08/25 10:14:07;;;;;;;11.80;5.78;;;;;;;31.05;44.71;100740.59;4975200;28;20467;-78
2022/08/25 10:16:34;;;;;;;9.63;5.53;;;;;;;30.90;44.62;100735.38;4975560;28;20051;-80
2022/08/25 10:19:13;;;;;;;6.70;4.78;;;;;;;31.17;44.41;100734.81;4962488;28;20054;-78
2022/08/25 10:21:47;;;;;;;6.85;4.70;;;;;;;31.76;43.81;100720.69;4963316;29;20122;-78
2022/08/25 10:24:24;;;;;;;9.25;5.53;;;;;;;31.94;43.21;100706.31;4968594;28;20074;-81
2022/08/25 10:26:58;;;;;;;9.27;4.88;;;;;;;31.95;43.19;100726.88;4981478;28;20059;-79
2022/08/25 10:30:01;;;;;;;8.57;4.95;;;;;;;31.20;43.98;100718.78;4975813;28;20051;-79
2022/08/25 10:32:47;;;;;;;11.38;4.82;;;;;;;32.03;42.91;100703.75;4974951;28;20376;-80
2022/08/25 10:35:20;;;;;;;8.30;5.30;;;;;;;32.30;42.76;100713.84;4973578;28;20050;-79
2022/08/25 10:38:04;;;;;;;6.32;4.97;;;;;;;32.03;41.97;100713.78;4970650;28;20047;-80
2022/08/25 10:40:38;;;;;;;13.40;4.88;;;;;;;31.86;41.77;100698.06;4972309;28;20046;-79
2022/08/25 10:43:18;;;;;;;6.82;4.72;;;;;;;31.90;41.53;100705.31;4965300;28;20475;-78
2022/08/25 10:45:50;;;;;;;6.15;4.38;;;;;;;31.03;42.10;100707.66;4970960;28;20039;-78
2022/08/25 10:48:24;;;;;;;;;;;;;;;31.84;41.70;100698.38;4965166;28;20050;-77
2022/08/25 10:50:58;;;;;;;7.13;4.93;;;;;;;31.86;40.70;100696.19;4964483;28;19929;-79
2022/08/25 10:53:29;;;;;;;5.43;4.82;;;;;;;31.69;40.52;100690.50;4969781;28;20070;-78
2022/08/25 10:56:11;;;;;;;5.50;4.87;;;;;;;31.49;41.56;100693.50;4962181;28;20054;-78
2022/08/25 10:59:05;;;;;;;13.07;5.30;;;;;;;30.97;42.65;100692.59;4974892;28;20427;-79
2022/08/25 11:01:44;;;;;;;7.78;4.57;;;;;;;31.61;41.60;100685.75;4965978;28;20054;-78
2022/08/25 11:04:15;;;;;;;9.60;4.95;;;;;;;31.28;41.72;100684.88;4962082;28;20054;-77
2022/08/25 11:06:49;;;;;;;7.15;4.60;;;;;;;31.58;41.05;100680.94;4970459;28;20129;-77
2022/08/25 11:09:21;;;;;;;6.10;4.72;;;;;;;31.41;41.30;100669.84;4971905;28;20065;-78
2022/08/25 11:11:52;;;;;;;;;;;;;;;31.65;41.19;100676.75;4970984;28;20515;-79
2022/08/25 11:14:23;;;;;;;13.60;5.55;;;;;;;32.20;38.64;100673.38;4969923;28;19980;-76
2022/08/25 11:16:57;;;;;;;7.30;5.10;;;;;;;31.67;40.19;100652.91;5004830;23;20115;-80
2022/08/25 11:19:30;;;;;;;9.45;5.00;;;;;;;31.60;40.23;100657.09;5008238;28;20316;-79
2022/08/25 11:22:07;;;;;;;12.48;5.82;;;;;;;32.24;40.09;100658.16;5012750;28;20105;-81
2022/08/25 11:24:51;;;;;;;9.52;4.88;;;;;;;31.65;40.09;100662.44;5012994;28;20046;-82
2022/08/25 11:27:22;;;;;;;10.07;5.25;;;;;;;32.27;40.12;100658.38;4996353;28;20058;-79
2022/08/25 11:30:02;;;;;;;16.45;5.55;;;;;;;32.49;39.68;100660.41;4989298;28;20058;-79
2022/08/25 11:32:34;;;;;;;7.38;5.00;;;;;;;32.72;38.35;100655.03;4990699;28;20049;-81
2022/08/25 11:35:02;;;;;;;14.63;5.07;;;;;;;32.87;38.21;100662.88;4989445;28;20042;-80
2022/08/25 11:37:30;;;;;;;8.00;4.85;;;;;;;32.19;39.32;100648.22;4992359;28;20070;-79
2022/08/25 11:40:33;;;;;;;10.32;5.47;;;;;;;32.09;39.63;100659.25;4991723;28;20519;-79
2022/08/25 11:43:13;;;;;;;7.50;5.20;;;;;;;32.47;39.83;100650.97;4968201;28;20074;-81